sensor_id;sensor_type;location;lat;lon;timestamp;pressure;altitude;pressure_sealevel;temperature;humidity
76434;BME280;65265;53.200;6.080;2023-12-04T00:00:47;101390.28;;;-0.07;100.00
76434;BME280;65265;53.200;6.080;2023-12-04T00:05:38;101381.88;;;-0.07;100.00
76434;BME280;65265;53.200;6.080;2023-12-04T00:10:34;101371.56;;;-0.10;100.00
76434;BME280;65265;53.200;6.080;2023-12-04T00:15:26;101364.13;;;-0.08;100.00
76434;BME280;65265;53.200;6.080;2023-12-04T00:20:17;101352.25;;;-0.01;100.00
76434;BME280;65265;53.200;6.080;2023-12-04T00:25:09;101345.03;;;-0.07;100.00
76434;BME280;65265;53.200;6.080;2023-12-04T00:30:05;101353.06;;;-0.10;100.00
76434;BME280;65265;53.200;6.080;2023-12-04T00:34:58;101319.88;;;-0.16;100.00
76434;BME280;65265;53.200;6.080;2023-12-04T00:39:50;101336.38;;;-0.10;100.00
76434;BME280;65265;53.200;6.080;2023-12-04T00:44:42;101332.22;;;-0.09;100.00
76434;BME280;65265;53.200;6.080;2023-12-04T00:49:37;101320.66;;;-0.08;100.00
76434;BME280;65265;53.200;6.080;2023-12-04T00:54:29;101319.03;;;-0.07;100.00
76434;BME280;65265;53.200;6.080;2023-12-04T00:59:22;101320.13;;;-0.13;100.00
76434;BME280;65265;53.200;6.080;2023-12-04T01:04:14;101295.47;;;-0.17;100.00
76434;BME280;65265;53.200;6.080;2023-12-04T01:09:10;101303.06;;;-0.08;100.00
76434;BME280;65265;53.200;6.080;2023-12-04T01:14:02;101296.28;;;-0.08;100.00
76434;BME280;65265;53.200;6.080;2023-12-04T01:18:54;101288.34;;;-0.13;100.00
76434;BME280;65265;53.200;6.080;2023-12-04T01:23:46;101286.53;;;-0.05;100.00
76434;BME280;65265;53.200;6.080;2023-12-04T01:28:41;101274.66;;;-0.07;100.00
76434;BME280;65265;53.200;6.080;2023-12-04T01:33:34;101259.47;;;-0.08;100.00
76434;BME280;65265;53.200;6.080;2023-12-04T01:38:26;101268.63;;;-0.08;100.00
76434;BME280;65265;53.200;6.080;2023-12-04T01:43:19;101275.97;;;-0.02;100.00
76434;BME280;65265;53.200;6.080;2023-12-04T01:48:15;101257.47;;;-0.02;100.00
76434;BME280;65265;53.200;6.080;2023-12-04T01:53:08;101267.72;;;0.09;100.00
76434;BME280;65265;53.200;6.080;2023-12-04T01:58:04;101260.66;;;0.05;100.00
76434;BME280;65265;53.200;6.080;2023-12-04T02:02:56;101248.63;;;0.11;100.00
76434;BME280;65265;53.200;6.080;2023-12-04T02:07:53;101246.72;;;0.09;100.00
76434;BME280;65265;53.200;6.080;2023-12-04T02:12:46;101246.59;;;0.07;100.00
76434;BME280;65265;53.200;6.080;2023-12-04T02:17:39;101238.81;;;0.14;100.00
76434;BME280;65265;53.200;6.080;2023-12-04T02:22:32;101234.28;;;0.10;100.00
76434;BME280;65265;53.200;6.080;2023-12-04T02:27:34;101236.06;;;0.11;100.00
76434;BME280;65265;53.200;6.080;2023-12-04T02:32:32;101237.06;;;0.13;100.00
76434;BME280;65265;53.200;6.080;2023-12-04T02:37:26;101222.47;;;0.09;100.00
76434;BME280;65265;53.200;6.080;2023-12-04T02:42:18;101205.63;;;0.08;100.00
76434;BME280;65265;53.200;6.080;2023-12-04T02:47:14;101210.16;;;0.12;100.00
76434;BME280;65265;53.200;6.080;2023-12-04T02:52:06;101202.13;;;0.16;100.00
76434;BME280;65265;53.200;6.080;2023-12-04T02:56:59;101190.19;;;0.14;100.00
76434;BME280;65265;53.200;6.080;2023-12-04T03:01:51;101194.31;;;0.13;100.00
76434;BME280;65265;53.200;6.080;2023-12-04T03:06:47;101182.66;;;0.14;100.00
76434;BME280;65265;53.200;6.080;2023-12-04T03:11:39;101175.22;;;0.15;100.00
76434;BME280;65265;53.200;6.080;2023-12-04T03:16:31;101178.25;;;0.21;100.00
76434;BME280;65265;53.200;6.080;2023-12-04T03:21:24;101179.47;;;0.16;100.00
76434;BME280;65265;53.200;6.080;2023-12-04T03:26:19;101167.16;;;0.09;100.00
76434;BME280;65265;53.200;6.080;2023-12-04T03:31:10;101173.59;;;0.16;100.00
76434;BME280;65265;53.200;6.080;2023-12-04T03:36:03;101172.69;;;0.15;100.00
76434;BME280;65265;53.200;6.080;2023-12-04T03:40:56;101165.91;;;0.14;100.00
76434;BME280;65265;53.200;6.080;2023-12-04T03:45:50;101156.00;;;0.16;100.00
76434;BME280;65265;53.200;6.080;2023-12-04T03:50:43;101155.22;;;0.17;100.00
76434;BME280;65265;53.200;6.080;2023-12-04T03:55:36;101130.31;;;0.10;100.00
76434;BME280;65265;53.200;6.080;2023-12-04T04:00:28;101132.22;;;0.12;100.00
76434;BME280;65265;53.200;6.080;2023-12-04T04:05:23;101124.91;;;0.15;100.00
76434;BME280;65265;53.200;6.080;2023-12-04T04:10:15;101124.31;;;0.18;100.00
76434;BME280;65265;53.200;6.080;2023-12-04T04:15:08;101120.94;;;0.17;100.00
76434;BME280;65265;53.200;6.080;2023-12-04T04:20:01;101114.88;;;0.25;100.00
76434;BME280;65265;53.200;6.080;2023-12-04T04:24:55;101085.97;;;0.20;100.00
76434;BME280;65265;53.200;6.080;2023-12-04T04:29:48;101097.28;;;0.25;100.00
76434;BME280;65265;53.200;6.080;2023-12-04T04:34:40;101103.06;;;0.24;100.00
76434;BME280;65265;53.200;6.080;2023-12-04T04:39:32;101103.81;;;0.23;100.00
76434;BME280;65265;53.200;6.080;2023-12-04T04:44:28;101098.03;;;0.24;100.00
76434;BME280;65265;53.200;6.080;2023-12-04T04:49:19;101095.28;;;0.31;100.00
76434;BME280;65265;53.200;6.080;2023-12-04T04:54:11;101071.16;;;0.33;100.00
76434;BME280;65265;53.200;6.080;2023-12-04T04:59:04;101071.13;;;0.23;100.00
76434;BME280;65265;53.200;6.080;2023-12-04T05:03:58;101057.19;;;0.27;100.00
76434;BME280;65265;53.200;6.080;2023-12-04T05:08:50;101050.03;;;0.21;100.00
76434;BME280;65265;53.200;6.080;2023-12-04T05:13:44;101053.66;;;0.25;100.00
76434;BME280;65265;53.200;6.080;2023-12-04T05:18:38;101054.06;;;0.29;100.00
76434;BME280;65265;53.200;6.080;2023-12-04T05:23:36;101048.75;;;0.26;100.00
76434;BME280;65265;53.200;6.080;2023-12-04T05:28:28;101047.28;;;0.28;100.00
76434;BME280;65265;53.200;6.080;2023-12-04T05:33:20;101046.88;;;0.24;100.00
76434;BME280;65265;53.200;6.080;2023-12-04T05:38:12;101036.44;;;0.19;100.00
76434;BME280;65265;53.200;6.080;2023-12-04T05:43:09;101033.66;;;0.26;100.00
76434;BME280;65265;53.200;6.080;2023-12-04T05:48:02;101035.69;;;0.30;100.00
76434;BME280;65265;53.200;6.080;2023-12-04T05:52:54;101027.16;;;0.28;100.00
76434;BME280;65265;53.200;6.080;2023-12-04T05:57:47;101028.38;;;0.33;100.00
76434;BME280;65265;53.200;6.080;2023-12-04T06:02:43;101022.13;;;0.28;100.00
76434;BME280;65265;53.200;6.080;2023-12-04T06:07:35;101005.50;;;0.20;100.00
76434;BME280;65265;53.200;6.080;2023-12-04T06:12:28;101008.28;;;0.33;100.00
76434;BME280;65265;53.200;6.080;2023-12-04T06:17:20;101012.69;;;0.36;100.00
76434;BME280;65265;53.200;6.080;2023-12-04T06:22:16;101001.25;;;0.39;100.00
76434;BME280;65265;53.200;6.080;2023-12-04T06:27:12;101003.38;;;0.45;100.00
76434;BME280;65265;53.200;6.080;2023-12-04T06:32:11;100999.72;;;0.41;100.00
76434;BME280;65265;53.200;6.080;2023-12-04T06:37:08;100984.88;;;0.44;100.00
76434;BME280;65265;53.200;6.080;2023-12-04T06:42:04;100981.38;;;0.32;100.00
76434;BME280;65265;53.200;6.080;2023-12-04T06:46:58;100975.19;;;0.39;100.00
76434;BME280;65265;53.200;6.080;2023-12-04T06:51:52;100976.81;;;0.38;100.00
76434;BME280;65265;53.200;6.080;2023-12-04T06:56:45;100987.00;;;0.40;100.00
76434;BME280;65265;53.200;6.080;2023-12-04T07:01:40;100970.03;;;0.37;100.00
76434;BME280;65265;53.200;6.080;2023-12-04T07:06:33;100969.56;;;0.31;100.00
76434;BME280;65265;53.200;6.080;2023-12-04T07:11:27;100946.94;;;0.21;100.00
76434;BME280;65265;53.200;6.080;2023-12-04T07:16:23;100956.69;;;0.38;100.00
76434;BME280;65265;53.200;6.080;2023-12-04T07:21:18;100944.88;;;0.37;100.00
76434;BME280;65265;53.200;6.080;2023-12-04T07:26:11;100945.16;;;0.30;100.00
76434;BME280;65265;53.200;6.080;2023-12-04T07:31:05;100942.50;;;0.39;100.00
76434;BME280;65265;53.200;6.080;2023-12-04T07:35:57;100938.63;;;0.32;100.00
76434;BME280;65265;53.200;6.080;2023-12-04T07:40:52;100935.72;;;0.38;100.00
76434;BME280;65265;53.200;6.080;2023-12-04T07:45:44;100924.53;;;0.34;100.00
76434;BME280;65265;53.200;6.080;2023-12-04T07:50:37;100926.78;;;0.41;100.00
76434;BME280;65265;53.200;6.080;2023-12-04T07:55:30;100941.75;;;0.40;100.00
76434;BME280;65265;53.200;6.080;2023-12-04T08:00:26;100927.94;;;0.35;100.00
76434;BME280;65265;53.200;6.080;2023-12-04T08:05:18;100923.53;;;0.32;100.00
76434;BME280;65265;53.200;6.080;2023-12-04T08:10:09;100931.06;;;0.42;100.00
76434;BME280;65265;53.200;6.080;2023-12-04T08:15:02;100918.72;;;0.35;100.00
76434;BME280;65265;53.200;6.080;2023-12-04T08:19:55;100921.75;;;0.41;100.00
76434;BME280;65265;53.200;6.080;2023-12-04T08:24:47;100923.50;;;0.42;100.00
76434;BME280;65265;53.200;6.080;2023-12-04T08:29:39;100922.97;;;0.46;100.00
76434;BME280;65265;53.200;6.080;2023-12-04T08:34:30;100918.72;;;0.45;100.00
76434;BME280;65265;53.200;6.080;2023-12-04T08:39:23;100910.63;;;0.49;100.00
76434;BME280;65265;53.200;6.080;2023-12-04T08:44:15;100905.28;;;0.45;100.00
76434;BME280;65265;53.200;6.080;2023-12-04T08:49:06;100908.13;;;0.49;100.00
76434;BME280;65265;53.200;6.080;2023-12-04T08:53:58;100903.22;;;0.51;100.00
76434;BME280;65265;53.200;6.080;2023-12-04T08:58:51;100899.94;;;0.52;100.00
76434;BME280;65265;53.200;6.080;2023-12-04T09:03:42;100895.16;;;0.55;100.00
76434;BME280;65265;53.200;6.080;2023-12-04T09:08:34;100896.94;;;0.56;100.00
76434;BME280;65265;53.200;6.080;2023-12-04T09:13:26;100888.88;;;0.60;100.00
76434;BME280;65265;53.200;6.080;2023-12-04T09:18:19;100889.84;;;0.62;100.00
76434;BME280;65265;53.200;6.080;2023-12-04T09:23:10;100878.41;;;0.65;100.00
76434;BME280;65265;53.200;6.080;2023-12-04T09:28:02;100892.97;;;0.69;100.00
76434;BME280;65265;53.200;6.080;2023-12-04T09:32:53;100885.41;;;0.69;100.00
76434;BME280;65265;53.200;6.080;2023-12-04T09:37:48;100884.56;;;0.69;100.00
76434;BME280;65265;53.200;6.080;2023-12-04T09:42:41;100883.91;;;0.71;100.00
76434;BME280;65265;53.200;6.080;2023-12-04T09:47:33;100895.25;;;0.66;100.00
76434;BME280;65265;53.200;6.080;2023-12-04T09:52:27;100892.50;;;0.63;100.00
76434;BME280;65265;53.200;6.080;2023-12-04T09:57:20;100904.31;;;0.64;100.00
76434;BME280;65265;53.200;6.080;2023-12-04T10:02:13;100896.38;;;0.70;100.00
76434;BME280;65265;53.200;6.080;2023-12-04T10:07:04;100892.09;;;0.69;100.00
76434;BME280;65265;53.200;6.080;2023-12-04T10:11:56;100881.13;;;0.78;100.00
76434;BME280;65265;53.200;6.080;2023-12-04T10:16:50;100883.59;;;0.88;100.00
76434;BME280;65265;53.200;6.080;2023-12-04T10:21:43;100886.09;;;0.88;100.00
76434;BME280;65265;53.200;6.080;2023-12-04T10:26:34;100866.50;;;0.84;100.00
76434;BME280;65265;53.200;6.080;2023-12-04T10:31:26;100858.63;;;0.91;100.00
76434;BME280;65265;53.200;6.080;2023-12-04T10:36:26;100844.25;;;1.00;100.00
76434;BME280;65265;53.200;6.080;2023-12-04T10:41:20;100837.41;;;1.09;100.00
76434;BME280;65265;53.200;6.080;2023-12-04T10:46:12;100821.13;;;1.16;100.00
76434;BME280;65265;53.200;6.080;2023-12-04T10:51:09;100822.56;;;1.24;100.00
76434;BME280;65265;53.200;6.080;2023-12-04T10:56:06;100813.06;;;1.31;100.00
76434;BME280;65265;53.200;6.080;2023-12-04T11:01:00;100818.44;;;1.36;100.00
76434;BME280;65265;53.200;6.080;2023-12-04T11:06:00;100795.63;;;1.23;100.00
76434;BME280;65265;53.200;6.080;2023-12-04T11:10:58;100804.03;;;1.45;100.00
76434;BME280;65265;53.200;6.080;2023-12-04T11:15:59;100805.88;;;1.47;100.00
76434;BME280;65265;53.200;6.080;2023-12-04T11:20:56;100788.78;;;1.43;100.00
76434;BME280;65265;53.200;6.080;2023-12-04T11:25:49;100795.69;;;1.46;100.00
76434;BME280;65265;53.200;6.080;2023-12-04T11:30:43;100785.81;;;1.37;100.00
76434;BME280;65265;53.200;6.080;2023-12-04T11:35:38;100787.25;;;1.34;100.00
76434;BME280;65265;53.200;6.080;2023-12-04T11:40:30;100784.50;;;1.42;100.00
76434;BME280;65265;53.200;6.080;2023-12-04T11:45:21;100779.13;;;1.38;100.00
76434;BME280;65265;53.200;6.080;2023-12-04T11:50:12;100761.72;;;1.41;100.00
76434;BME280;65265;53.200;6.080;2023-12-04T11:55:06;100756.47;;;1.38;100.00
76434;BME280;65265;53.200;6.080;2023-12-04T12:00:08;100764.44;;;1.44;100.00
76434;BME280;65265;53.200;6.080;2023-12-04T12:05:01;100754.72;;;1.48;100.00
76434;BME280;65265;53.200;6.080;2023-12-04T12:09:53;100747.84;;;1.57;100.00
76434;BME280;65265;53.200;6.080;2023-12-04T12:14:46;100742.88;;;1.47;100.00
76434;BME280;65265;53.200;6.080;2023-12-04T12:19:38;100737.97;;;1.49;100.00
76434;BME280;65265;53.200;6.080;2023-12-04T12:24:29;100719.56;;;1.50;100.00
76434;BME280;65265;53.200;6.080;2023-12-04T12:29:20;100727.25;;;1.51;100.00
76434;BME280;65265;53.200;6.080;2023-12-04T12:34:15;100715.16;;;1.47;100.00
76434;BME280;65265;53.200;6.080;2023-12-04T12:39:07;100713.41;;;1.46;100.00
76434;BME280;65265;53.200;6.080;2023-12-04T12:44:01;100711.34;;;1.52;100.00
76434;BME280;65265;53.200;6.080;2023-12-04T12:48:54;100686.59;;;1.47;100.00
76434;BME280;65265;53.200;6.080;2023-12-04T12:53:47;100704.13;;;1.57;100.00
76434;BME280;65265;53.200;6.080;2023-12-04T12:58:39;100690.84;;;1.59;100.00
76434;BME280;65265;53.200;6.080;2023-12-04T13:03:32;100683.28;;;1.59;100.00
76434;BME280;65265;53.200;6.080;2023-12-04T13:08:27;100676.50;;;1.58;100.00
76434;BME280;65265;53.200;6.080;2023-12-04T13:13:25;100676.19;;;1.65;100.00
76434;BME280;65265;53.200;6.080;2023-12-04T13:18:17;100663.59;;;1.65;100.00
76434;BME280;65265;53.200;6.080;2023-12-04T13:23:11;100651.19;;;1.68;100.00
76434;BME280;65265;53.200;6.080;2023-12-04T13:28:03;100644.63;;;1.70;100.00
76434;BME280;65265;53.200;6.080;2023-12-04T13:32:59;100631.38;;;1.61;100.00
76434;BME280;65265;53.200;6.080;2023-12-04T13:37:51;100625.34;;;1.71;100.00
76434;BME280;65265;53.200;6.080;2023-12-04T13:42:45;100620.19;;;1.69;100.00
76434;BME280;65265;53.200;6.080;2023-12-04T13:47:55;100599.81;;;1.66;100.00
76434;BME280;65265;53.200;6.080;2023-12-04T13:52:50;100612.41;;;1.66;100.00
76434;BME280;65265;53.200;6.080;2023-12-04T13:57:46;100592.56;;;1.59;100.00
76434;BME280;65265;53.200;6.080;2023-12-04T14:03:00;100608.91;;;1.64;100.00
76434;BME280;65265;53.200;6.080;2023-12-04T14:07:56;100608.25;;;1.67;100.00
76434;BME280;65265;53.200;6.080;2023-12-04T14:12:48;100603.22;;;1.67;100.00
76434;BME280;65265;53.200;6.080;2023-12-04T14:17:40;100592.25;;;1.66;100.00
76434;BME280;65265;53.200;6.080;2023-12-04T14:22:31;100601.25;;;1.63;100.00
76434;BME280;65265;53.200;6.080;2023-12-04T14:27:26;100577.25;;;1.56;100.00
76434;BME280;65265;53.200;6.080;2023-12-04T14:32:18;100587.41;;;1.69;100.00
76434;BME280;65265;53.200;6.080;2023-12-04T14:37:10;100582.19;;;1.66;100.00
76434;BME280;65265;53.200;6.080;2023-12-04T14:42:02;100573.84;;;1.67;100.00
76434;BME280;65265;53.200;6.080;2023-12-04T14:46:54;100573.38;;;1.73;100.00
76434;BME280;65265;53.200;6.080;2023-12-04T14:51:46;100569.56;;;1.66;100.00
76434;BME280;65265;53.200;6.080;2023-12-04T14:56:41;100567.81;;;1.65;100.00
76434;BME280;65265;53.200;6.080;2023-12-04T15:01:53;100556.31;;;1.57;100.00
76434;BME280;65265;53.200;6.080;2023-12-04T15:07:04;100546.81;;;1.53;100.00
76434;BME280;65265;53.200;6.080;2023-12-04T15:12:31;100541.69;;;1.40;100.00
76434;BME280;65265;53.200;6.080;2023-12-04T15:17:42;100536.22;;;1.34;100.00
76434;BME280;65265;53.200;6.080;2023-12-04T15:22:43;100538.19;;;1.27;100.00
76434;BME280;65265;53.200;6.080;2023-12-04T15:27:37;100539.28;;;1.19;100.00
76434;BME280;65265;53.200;6.080;2023-12-04T15:32:30;100532.75;;;1.09;100.00
76434;BME280;65265;53.200;6.080;2023-12-04T15:37:22;100549.59;;;1.10;100.00
76434;BME280;65265;53.200;6.080;2023-12-04T15:42:19;100550.88;;;1.05;100.00
76434;BME280;65265;53.200;6.080;2023-12-04T15:47:13;100520.25;;;0.76;100.00
76434;BME280;65265;53.200;6.080;2023-12-04T15:52:06;100529.25;;;0.84;100.00
76434;BME280;65265;53.200;6.080;2023-12-04T15:56:59;100548.16;;;0.91;100.00
76434;BME280;65265;53.200;6.080;2023-12-04T16:01:54;100542.03;;;0.87;100.00
76434;BME280;65265;53.200;6.080;2023-12-04T16:06:45;100531.84;;;0.86;100.00
76434;BME280;65265;53.200;6.080;2023-12-04T16:11:37;100532.06;;;0.89;100.00
76434;BME280;65265;53.200;6.080;2023-12-04T16:16:29;100528.81;;;0.90;100.00
76434;BME280;65265;53.200;6.080;2023-12-04T16:21:23;100529.44;;;0.87;100.00
76434;BME280;65265;53.200;6.080;2023-12-04T16:26:14;100533.50;;;0.85;100.00
76434;BME280;65265;53.200;6.080;2023-12-04T16:31:06;100525.72;;;0.82;100.00
76434;BME280;65265;53.200;6.080;2023-12-04T16:35:58;100520.16;;;0.86;100.00
76434;BME280;65265;53.200;6.080;2023-12-04T16:40:51;100515.44;;;0.91;100.00
76434;BME280;65265;53.200;6.080;2023-12-04T16:45:43;100503.50;;;0.88;100.00
76434;BME280;65265;53.200;6.080;2023-12-04T16:50:36;100506.16;;;0.90;100.00
76434;BME280;65265;53.200;6.080;2023-12-04T16:55:28;100509.09;;;0.96;100.00
76434;BME280;65265;53.200;6.080;2023-12-04T17:00:25;100504.94;;;0.96;100.00
76434;BME280;65265;53.200;6.080;2023-12-04T17:05:16;100507.13;;;1.03;100.00
76434;BME280;65265;53.200;6.080;2023-12-04T17:10:08;100499.34;;;1.00;100.00
76434;BME280;65265;53.200;6.080;2023-12-04T17:15:00;100492.78;;;1.02;100.00
76434;BME280;65265;53.200;6.080;2023-12-04T17:19:55;100493.53;;;1.01;100.00
76434;BME280;65265;53.200;6.080;2023-12-04T17:24:47;100496.06;;;1.01;100.00
76434;BME280;65265;53.200;6.080;2023-12-04T17:29:40;100502.41;;;1.08;100.00
76434;BME280;65265;53.200;6.080;2023-12-04T17:34:34;100508.41;;;1.10;100.00
76434;BME280;65265;53.200;6.080;2023-12-04T17:39:31;100490.03;;;1.11;100.00
76434;BME280;65265;53.200;6.080;2023-12-04T17:44:24;100498.13;;;1.18;100.00
76434;BME280;65265;53.200;6.080;2023-12-04T17:49:19;100490.34;;;1.15;100.00
76434;BME280;65265;53.200;6.080;2023-12-04T17:54:13;100458.31;;;1.01;100.00
76434;BME280;65265;53.200;6.080;2023-12-04T17:59:07;100479.06;;;1.22;100.00
76434;BME280;65265;53.200;6.080;2023-12-04T18:04:02;100465.94;;;1.14;100.00
76434;BME280;65265;53.200;6.080;2023-12-04T18:08:55;100473.50;;;1.14;100.00
76434;BME280;65265;53.200;6.080;2023-12-04T18:13:47;100469.88;;;1.11;100.00
76434;BME280;65265;53.200;6.080;2023-12-04T18:18:42;100465.09;;;1.02;100.00
76434;BME280;65265;53.200;6.080;2023-12-04T18:23:35;100455.69;;;0.88;100.00
76434;BME280;65265;53.200;6.080;2023-12-04T18:28:29;100456.09;;;0.94;100.00
76434;BME280;65265;53.200;6.080;2023-12-04T18:33:24;100458.00;;;0.85;100.00
76434;BME280;65265;53.200;6.080;2023-12-04T18:38:31;100461.03;;;0.81;100.00
76434;BME280;65265;53.200;6.080;2023-12-04T18:43:25;100466.84;;;0.80;100.00
76434;BME280;65265;53.200;6.080;2023-12-04T18:48:19;100457.91;;;0.72;100.00
76434;BME280;65265;53.200;6.080;2023-12-04T18:53:13;100457.91;;;0.72;100.00
76434;BME280;65265;53.200;6.080;2023-12-04T18:58:09;100458.75;;;0.73;100.00
76434;BME280;65265;53.200;6.080;2023-12-04T19:03:04;100460.41;;;0.72;100.00
76434;BME280;65265;53.200;6.080;2023-12-04T19:07:56;100452.28;;;0.65;100.00
76434;BME280;65265;53.200;6.080;2023-12-04T19:12:48;100443.22;;;0.55;100.00
76434;BME280;65265;53.200;6.080;2023-12-04T19:17:42;100455.47;;;0.51;100.00
76434;BME280;65265;53.200;6.080;2023-12-04T19:22:36;100451.75;;;0.46;100.00
76434;BME280;65265;53.200;6.080;2023-12-04T19:27:30;100442.13;;;0.52;100.00
76434;BME280;65265;53.200;6.080;2023-12-04T19:32:25;100438.63;;;0.50;100.00
76434;BME280;65265;53.200;6.080;2023-12-04T19:37:23;100436.25;;;0.51;100.00
76434;BME280;65265;53.200;6.080;2023-12-04T19:42:16;100423.53;;;0.50;100.00
76434;BME280;65265;53.200;6.080;2023-12-04T19:47:09;100419.41;;;0.50;100.00
76434;BME280;65265;53.200;6.080;2023-12-04T19:52:04;100411.72;;;0.49;100.00
76434;BME280;65265;53.200;6.080;2023-12-04T19:57:04;100404.75;;;0.45;100.00
76434;BME280;65265;53.200;6.080;2023-12-04T20:01:57;100412.59;;;0.49;100.00
76434;BME280;65265;53.200;6.080;2023-12-04T20:06:50;100406.16;;;0.41;100.00
76434;BME280;65265;53.200;6.080;2023-12-04T20:11:42;100411.19;;;0.41;100.00
76434;BME280;65265;53.200;6.080;2023-12-04T20:16:37;100408.44;;;0.38;100.00
76434;BME280;65265;53.200;6.080;2023-12-04T20:21:29;100397.53;;;0.38;100.00
76434;BME280;65265;53.200;6.080;2023-12-04T20:26:23;100395.66;;;0.35;100.00
76434;BME280;65265;53.200;6.080;2023-12-04T20:31:15;100393.13;;;0.35;100.00
76434;BME280;65265;53.200;6.080;2023-12-04T20:36:12;100393.13;;;0.35;100.00
76434;BME280;65265;53.200;6.080;2023-12-04T20:41:04;100400.59;;;0.34;100.00
76434;BME280;65265;53.200;6.080;2023-12-04T20:45:56;100383.63;;;0.31;100.00
76434;BME280;65265;53.200;6.080;2023-12-04T20:50:48;100386.03;;;0.30;100.00
76434;BME280;65265;53.200;6.080;2023-12-04T20:55:44;100369.09;;;0.16;100.00
76434;BME280;65265;53.200;6.080;2023-12-04T21:00:38;100385.69;;;0.25;100.00
76434;BME280;65265;53.200;6.080;2023-12-04T21:05:30;100389.19;;;0.27;100.00
76434;BME280;65265;53.200;6.080;2023-12-04T21:10:23;100389.44;;;0.30;100.00
76434;BME280;65265;53.200;6.080;2023-12-04T21:15:17;100382.88;;;0.32;100.00
76434;BME280;65265;53.200;6.080;2023-12-04T21:20:10;100383.72;;;0.33;100.00
76434;BME280;65265;53.200;6.080;2023-12-04T21:25:03;100390.84;;;0.27;100.00
76434;BME280;65265;53.200;6.080;2023-12-04T21:29:56;100363.63;;;0.21;100.00
76434;BME280;65265;53.200;6.080;2023-12-04T21:34:52;100361.78;;;0.30;100.00
76434;BME280;65265;53.200;6.080;2023-12-04T21:39:44;100370.09;;;0.29;100.00
76434;BME280;65265;53.200;6.080;2023-12-04T21:44:38;100376.09;;;0.31;100.00
76434;BME280;65265;53.200;6.080;2023-12-04T21:49:30;100324.06;;;0.07;100.00
76434;BME280;65265;53.200;6.080;2023-12-04T21:54:26;100365.25;;;0.32;100.00
76434;BME280;65265;53.200;6.080;2023-12-04T21:59:18;100359.13;;;0.29;100.00
76434;BME280;65265;53.200;6.080;2023-12-04T22:04:11;100357.72;;;0.32;100.00
76434;BME280;65265;53.200;6.080;2023-12-04T22:09:03;100353.53;;;0.33;100.00
76434;BME280;65265;53.200;6.080;2023-12-04T22:13:59;100354.00;;;0.39;100.00
76434;BME280;65265;53.200;6.080;2023-12-04T22:18:52;100346.91;;;0.33;100.00
76434;BME280;65265;53.200;6.080;2023-12-04T22:23:45;100341.75;;;0.32;100.00
76434;BME280;65265;53.200;6.080;2023-12-04T22:28:37;100357.72;;;0.32;100.00
76434;BME280;65265;53.200;6.080;2023-12-04T22:33:30;100349.41;;;0.33;100.00
76434;BME280;65265;53.200;6.080;2023-12-04T22:38:23;100349.28;;;0.32;100.00
76434;BME280;65265;53.200;6.080;2023-12-04T22:43:16;100343.03;;;0.38;100.00
76434;BME280;65265;53.200;6.080;2023-12-04T22:48:10;100343.16;;;0.40;100.00
76434;BME280;65265;53.200;6.080;2023-12-04T22:53:05;100343.28;;;0.41;100.00
76434;BME280;65265;53.200;6.080;2023-12-04T22:57:58;100336.72;;;0.32;100.00
76434;BME280;65265;53.200;6.080;2023-12-04T23:02:54;100346.34;;;0.37;100.00
76434;BME280;65265;53.200;6.080;2023-12-04T23:07:47;100339.22;;;0.32;100.00
76434;BME280;65265;53.200;6.080;2023-12-04T23:12:44;100338.69;;;0.24;100.00
76434;BME280;65265;53.200;6.080;2023-12-04T23:17:38;100346.44;;;0.27;100.00
76434;BME280;65265;53.200;6.080;2023-12-04T23:22:31;100340.22;;;0.22;100.00
76434;BME280;65265;53.200;6.080;2023-12-04T23:27:22;100334.31;;;0.22;100.00
76434;BME280;65265;53.200;6.080;2023-12-04T23:32:25;100330.59;;;0.17;100.00
76434;BME280;65265;53.200;6.080;2023-12-04T23:37:17;100339.59;;;0.25;100.00
76434;BME280;65265;53.200;6.080;2023-12-04T23:42:10;100329.06;;;0.19;100.00
76434;BME280;65265;53.200;6.080;2023-12-04T23:47:02;100324.38;;;0.23;100.00
76434;BME280;65265;53.200;6.080;2023-12-04T23:52:00;100312.44;;;0.21;100.00
76434;BME280;65265;53.200;6.080;2023-12-04T23:56:53;100310.16;;;0.12;100.00
